Time;durP1;ratioP1;P1;durP2;ratioP2;P2;SDS_P1;SDS_P2;PMS_P1;PMS_P2;Temp;Humidity;BMP_temperature;BMP_pressure;BME280_temperature;BME280_humidity;BME280_pressure;Samples;Min_cycle;Max_cycle;Signal;HPM_P1;HPM_P2
2021/11/18 00:00:53;;;;;;;;;;;;;;;5.60;53.73;101434.18;117502;1185;23467;-80
2021/11/18 00:03:22;;;;;;;;;;;;;;;5.58;53.80;101424.02;117526;1186;21829;-80
2021/11/18 00:05:50;;;;;;;;;;;;;;;5.56;53.65;101428.14;117464;1182;23531;-81
2021/11/18 00:08:19;;;;;;;;;;;;;;;5.56;53.73;101430.92;117494;1182;22321;-80
2021/11/18 00:10:47;;;;;;;;;;;;;;;5.57;53.48;101429.74;117175;1187;21845;-81
2021/11/18 00:13:18;;;;;;;;;;;;;;;5.55;53.58;101429.17;117344;1186;21934;-80
2021/11/18 00:15:46;;;;;;;;;;;;;;;5.55;53.75;101432.30;117364;1183;21853;-81
2021/11/18 00:18:18;;;;;;;;;;;;;;;5.54;53.77;101426.70;117324;1187;21851;-80
2021/11/18 00:20:50;;;;;;;;;;;;;;;5.55;53.62;101429.16;117308;1187;23567;-81
2021/11/18 00:23:18;;;;;;;;;;;;;;;5.53;53.67;101431.21;117391;1182;22817;-82
2021/11/18 00:25:47;;;;;;;;;;;;;;;5.51;53.76;101428.21;117279;1186;23980;-82
2021/11/18 00:28:15;;;;;;;;;;;;;;;5.52;53.85;101422.83;117369;1186;21844;-82
2021/11/18 00:30:44;;;;;;;;;;;;;;;5.51;53.55;101422.12;117489;1186;23522;-82
2021/11/18 00:33:12;;;;;;;;;;;;;;;5.52;53.62;101421.42;117314;1179;23227;-82
2021/11/18 00:35:40;;;;;;;;;;;;;;;5.50;53.59;101415.30;117408;1186;21845;-81
2021/11/18 00:38:08;;;;;;;;;;;;;;;5.50;53.46;101414.95;117456;1186;21887;-81
2021/11/18 00:40:37;;;;;;;;;;;;;;;5.50;53.67;101414.08;117425;1183;23554;-81
2021/11/18 00:43:06;;;;;;;;;;;;;;;5.53;53.54;101415.00;117360;1182;23451;-81
2021/11/18 00:45:34;;;;;;;;;;;;;;;5.49;53.57;101419.83;117190;1183;21884;-82
2021/11/18 00:48:02;;;;;;;;;;;;;;;5.50;53.25;101420.52;117335;1182;23525;-82
2021/11/18 00:50:32;;;;;;;;;;;;;;;5.54;53.53;101415.91;117402;1188;21844;-82
2021/11/18 00:53:00;;;;;;;;;;;;;;;5.55;53.26;101407.40;117495;1186;21841;-82
2021/11/18 00:55:28;;;;;;;;;;;;;;;5.57;53.53;101403.61;117316;1186;22921;-81
2021/11/18 00:57:56;;;;;;;;;;;;;;;5.56;53.45;101397.69;117388;1186;22161;-82
2021/11/18 01:00:25;;;;;;;;;;;;;;;5.54;53.41;101399.89;117318;1182;23861;-82
2021/11/18 01:02:53;;;;;;;;;;;;;;;5.50;53.49;101409.55;117334;1186;21910;-81
2021/11/18 01:05:25;;;;;;;;;;;;;;;5.44;53.44;101408.89;117385;1186;22153;-82
2021/11/18 01:07:54;;;;;;;;;;;;;;;5.46;53.34;101405.27;117303;1186;23439;-81
2021/11/18 01:10:22;;;;;;;;;;;;;;;5.46;53.39;101407.36;117488;1186;23419;-81
2021/11/18 01:12:50;;;;;;;;;;;;;;;5.47;53.31;101406.69;117534;1185;21852;-81
2021/11/18 01:15:20;;;;;;;;;;;;;;;5.47;53.25;101404.08;117520;1186;22484;-81
2021/11/18 01:17:49;;;;;;;;;;;;;;;5.43;53.29;101400.69;117316;1186;21913;-81
2021/11/18 01:20:17;;;;;;;;;;;;;;;5.33;53.21;101400.06;117428;1183;22971;-80
2021/11/18 01:22:45;;;;;;;;;;;;;;;5.29;53.30;101397.90;117314;1182;23539;-82
2021/11/18 01:25:13;;;;;;;;;;;;;;;5.28;53.58;101393.67;117274;1188;22929;-82
2021/11/18 01:27:43;;;;;;;;;;;;;;;5.26;53.45;101394.66;117610;1186;23531;-82
2021/11/18 01:30:12;;;;;;;;;;;;;;;5.25;53.53;101389.77;117425;1182;23551;-82
2021/11/18 01:32:41;;;;;;;;;;;;;;;5.25;53.44;101395.34;117550;1182;22602;-82
2021/11/18 01:35:09;;;;;;;;;;;;;;;5.24;53.55;101386.96;117422;1186;23636;-81
2021/11/18 01:37:37;;;;;;;;;;;;;;;5.23;53.54;101381.71;117438;1186;23493;-81
2021/11/18 01:40:06;;;;;;;;;;;;;;;5.23;53.47;101379.63;117627;1185;22919;-82
2021/11/18 01:42:34;;;;;;;;;;;;;;;5.25;53.83;101384.73;117627;1185;22909;-81
2021/11/18 01:45:03;;;;;;;;;;;;;;;5.28;53.54;101382.19;117588;1183;22921;-82
2021/11/18 01:47:31;;;;;;;;;;;;;;;5.27;53.46;101379.04;117471;1186;21842;-81
2021/11/18 01:49:59;;;;;;;;;;;;;;;5.27;53.78;101375.91;117519;1186;22984;-82
2021/11/18 01:52:27;;;;;;;;;;;;;;;5.27;53.58;101373.66;117559;1186;21849;-82
2021/11/18 01:54:55;;;;;;;;;;;;;;;5.29;53.47;101374.58;117563;1182;22911;-82
2021/11/18 01:57:26;;;;;;;;;;;;;;;5.32;53.41;101371.34;117518;1182;23522;-82
2021/11/18 02:00:02;;;;;;;;;;;;;;;5.34;53.46;101365.11;117502;1179;23521;-82
2021/11/18 02:02:31;;;;;;;;;;;;;;;5.30;53.62;101369.20;117529;1186;23528;-82
2021/11/18 02:05:19;;;;;;;;;;;;;;;5.30;53.71;101370.76;117488;1183;21858;-81
2021/11/18 02:07:47;;;;;;;;;;;;;;;5.29;53.58;101373.87;117495;1186;21852;-81
2021/11/18 02:10:16;;;;;;;;;;;;;;;5.29;53.35;101375.78;117376;1183;22237;-81
2021/11/18 02:12:44;;;;;;;;;;;;;;;5.29;53.36;101377.70;117575;1186;21839;-81
2021/11/18 02:15:16;;;;;;;;;;;;;;;5.28;53.53;101380.98;117569;1186;21841;-81
2021/11/18 02:17:45;;;;;;;;;;;;;;;5.28;53.56;101384.27;117368;1186;22239;-81
2021/11/18 02:20:17;;;;;;;;;;;;;;;5.28;53.48;101383.07;117532;1186;21844;-82
2021/11/18 02:22:45;;;;;;;;;;;;;;;5.27;53.63;101379.91;117567;1185;22082;-81
2021/11/18 02:25:13;;;;;;;;;;;;;;;5.29;53.45;101371.77;117543;1182;23420;-82
2021/11/18 02:27:41;;;;;;;;;;;;;;;5.29;53.88;101369.16;117542;1185;22913;-82
2021/11/18 02:30:09;;;;;;;;;;;;;;;5.36;53.44;101375.95;117307;1187;21839;-82
2021/11/18 02:32:40;;;;;;;;;;;;;;;5.43;53.57;101371.41;117434;1183;21827;-81
2021/11/18 02:35:21;;;;;;;;;;;;;;;5.42;53.57;101367.92;117448;1183;23518;-81
2021/11/18 02:37:50;;;;;;;;;;;;;;;5.42;53.48;101368.09;117432;1182;23547;-82
2021/11/18 02:40:17;;;;;;;;;;;;;;;5.41;53.76;101374.49;117532;1182;23531;-81
2021/11/18 02:42:46;;;;;;;;;;;;;;;5.42;53.63;101382.38;117423;1183;22983;-81
2021/11/18 02:45:18;;;;;;;;;;;;;;;5.42;53.63;101377.66;117343;1179;23445;-81
2021/11/18 02:47:46;;;;;;;;;;;;;;;5.43;53.83;101374.91;117409;1186;23535;-81
2021/11/18 02:50:17;;;;;;;;;;;;;;;5.44;53.54;101376.69;117329;1179;23608;-81
2021/11/18 02:52:45;;;;;;;;;;;;;;;5.45;53.56;101375.14;117238;1188;21860;-81
2021/11/18 02:55:22;;;;;;;;;;;;;;;5.47;53.60;101385.45;117173;1186;22937;-82
2021/11/18 02:57:50;;;;;;;;;;;;;;;5.49;53.77;101387.96;117397;1186;23522;-81
2021/11/18 03:00:20;;;;;;;;;;;;;;;5.52;53.72;101377.91;117489;1185;22018;-81
2021/11/18 03:02:48;;;;;;;;;;;;;;;5.54;53.91;101380.57;117494;1182;21897;-81
2021/11/18 03:05:18;;;;;;;;;;;;;;;5.57;54.08;101374.89;117504;1185;22921;-82
2021/11/18 03:07:46;;;;;;;;;;;;;;;5.59;53.56;101368.32;117466;1182;21842;-81
2021/11/18 03:10:14;;;;;;;;;;;;;;;5.58;53.90;101365.87;117385;1186;21842;-82
2021/11/18 03:12:42;;;;;;;;;;;;;;;5.59;54.03;101369.89;117414;1183;22906;-81
2021/11/18 03:15:11;;;;;;;;;;;;;;;5.60;53.95;101367.32;117372;1185;22155;-81
2021/11/18 03:17:39;;;;;;;;;;;;;;;5.61;54.01;101369.42;117564;1179;21854;-81
2021/11/18 03:20:08;;;;;;;;;;;;;;;5.63;53.69;101372.60;117469;1179;21863;-81
2021/11/18 03:22:36;;;;;;;;;;;;;;;5.63;53.81;101375.58;117480;1185;23455;-80
2021/11/18 03:25:04;;;;;;;;;;;;;;;5.65;53.79;101371.61;117439;1179;21850;-81
2021/11/18 03:27:33;;;;;;;;;;;;;;;5.66;53.86;101368.85;117405;1186;23553;-80
2021/11/18 03:30:02;;;;;;;;;;;;;;;5.68;53.90;101370.30;117461;1185;21842;-80
2021/11/18 03:32:31;;;;;;;;;;;;;;;5.69;53.86;101375.88;117411;1183;22930;-80
2021/11/18 03:34:59;;;;;;;;;;;;;;;5.70;53.94;101380.96;117444;1185;22905;-80
2021/11/18 03:37:27;;;;;;;;;;;;;;;5.71;53.73;101380.45;117390;1186;22609;-80
2021/11/18 03:39:55;;;;;;;;;;;;;;;5.71;53.72;101379.07;117503;1182;23548;-80
2021/11/18 03:42:23;;;;;;;;;;;;;;;5.72;53.77;101371.43;117407;1186;21883;-81
2021/11/18 03:44:51;;;;;;;;;;;;;;;5.71;53.75;101362.02;117424;1186;21847;-80
2021/11/18 03:47:21;;;;;;;;;;;;;;;5.70;53.97;101361.11;117527;1182;22229;-81
2021/11/18 03:49:49;;;;;;;;;;;;;;;5.70;53.56;101363.38;117425;1186;23535;-81
2021/11/18 03:52:17;;;;;;;;;;;;;;;5.70;53.76;101369.13;117513;1185;23678;-81
2021/11/18 03:54:45;;;;;;;;;;;;;;;5.70;53.56;101366.16;117486;1186;21864;-81
2021/11/18 03:57:13;;;;;;;;;;;;;;;5.70;53.80;101361.63;117465;1186;22120;-81
2021/11/18 03:59:44;;;;;;;;;;;;;;;5.70;53.73;101356.41;117554;1182;23509;-81
2021/11/18 04:02:12;;;;;;;;;;;;;;;5.69;53.81;101361.60;117543;1185;23519;-80
2021/11/18 04:04:42;;;;;;;;;;;;;;;5.68;53.82;101368.19;117630;1182;23530;-82
2021/11/18 04:07:10;;;;;;;;;;;;;;;5.68;53.84;101379.86;117765;1185;21848;-81
2021/11/18 04:09:39;;;;;;;;;;;;;;;5.69;53.67;101376.92;117747;1185;22600;-81
2021/11/18 04:12:08;;;;;;;;;;;;;;;5.72;54.03;101373.17;117590;1182;21900;-81
2021/11/18 04:14:36;;;;;;;;;;;;;;;5.74;53.70;101382.27;117589;1183;21855;-81
2021/11/18 04:17:04;;;;;;;;;;;;;;;5.77;54.02;101386.17;117563;1182;23940;-81
2021/11/18 04:19:33;;;;;;;;;;;;;;;5.82;53.86;101377.05;117558;1182;23521;-82
2021/11/18 04:22:01;;;;;;;;;;;;;;;5.84;53.84;101378.68;117496;1183;21836;-81
2021/11/18 04:24:32;;;;;;;;;;;;;;;5.87;53.95;101373.85;117451;1185;21851;-81
2021/11/18 04:27:00;;;;;;;;;;;;;;;5.89;54.05;101374.61;117531;1182;21871;-81
2021/11/18 04:29:28;;;;;;;;;;;;;;;5.89;54.03;101382.45;117567;1183;21845;-80
2021/11/18 04:31:58;;;;;;;;;;;;;;;5.89;54.00;101389.39;117392;1186;21856;-80
2021/11/18 04:34:26;;;;;;;;;;;;;;;5.89;53.77;101384.35;117564;1185;22939;-81
2021/11/18 04:36:54;;;;;;;;;;;;;;;5.87;54.01;101380.31;117584;1179;23425;-80
2021/11/18 04:39:22;;;;;;;;;;;;;;;5.87;54.03;101380.66;117350;1182;21842;-80
2021/11/18 04:41:51;;;;;;;;;;;;;;;5.87;53.81;101378.92;117459;1182;23005;-81
2021/11/18 04:44:21;;;;;;;;;;;;;;;5.87;53.80;101383.27;117662;1183;21841;-81
2021/11/18 04:46:49;;;;;;;;;;;;;;;5.89;54.04;101386.81;117640;1185;22248;-81
2021/11/18 04:49:17;;;;;;;;;;;;;;;5.90;53.93;101392.74;117572;1185;24022;-81
2021/11/18 04:51:45;;;;;;;;;;;;;;;5.78;54.23;101392.29;117493;1182;22248;-81
2021/11/18 04:54:13;;;;;;;;;;;;;;;5.75;54.29;101396.05;117565;1182;21912;-80
2021/11/18 04:56:41;;;;;;;;;;;;;;;5.86;54.38;101399.11;117415;1186;22921;-81
2021/11/18 04:59:09;;;;;;;;;;;;;;;5.92;54.11;101408.12;117418;1185;21867;-81
2021/11/18 05:01:38;;;;;;;;;;;;;;;5.89;54.00;101405.78;117546;1182;22929;-80
2021/11/18 05:04:06;;;;;;;;;;;;;;;5.81;53.87;101407.17;117532;1183;21855;-80
2021/11/18 05:06:34;;;;;;;;;;;;;;;5.78;53.82;101403.26;117593;1182;22358;-80
2021/11/18 05:09:04;;;;;;;;;;;;;;;5.78;54.13;101402.20;117657;1185;23545;-81
2021/11/18 05:11:32;;;;;;;;;;;;;;;5.79;54.17;101399.80;117614;1183;21844;-79
2021/11/18 05:14:00;;;;;;;;;;;;;;;5.83;54.17;101403.91;117599;1182;22184;-80
2021/11/18 05:16:28;;;;;;;;;;;;;;;5.88;54.17;101403.86;117414;1186;21940;-80
2021/11/18 05:18:56;;;;;;;;;;;;;;;5.93;54.33;101400.66;117537;1186;21851;-80
2021/11/18 05:21:29;;;;;;;;;;;;;;;5.96;54.23;101402.29;117545;1183;23835;-79
2021/11/18 05:23:58;;;;;;;;;;;;;;;6.00;54.20;101410.25;117581;1186;21887;-79
2021/11/18 05:26:26;;;;;;;;;;;;;;;6.04;54.31;101408.44;117488;1183;21842;-81
2021/11/18 05:28:54;;;;;;;;;;;;;;;6.08;54.28;101408.68;117383;1187;21855;-81
2021/11/18 05:31:22;;;;;;;;;;;;;;;6.13;54.14;101404.61;117590;1182;21887;-79
2021/11/18 05:33:50;;;;;;;;;;;;;;;6.16;54.16;101405.21;117564;1186;21842;-81
2021/11/18 05:36:19;;;;;;;;;;;;;;;6.17;54.08;101407.86;117748;1185;21974;-80
2021/11/18 05:38:47;;;;;;;;;;;;;;;6.18;54.26;101407.52;117846;1185;21890;-80
2021/11/18 05:41:15;;;;;;;;;;;;;;;6.19;54.10;101405.09;117721;1182;22150;-80
2021/11/18 05:43:45;;;;;;;;;;;;;;;6.20;54.10;101405.45;117481;1183;21849;-81
2021/11/18 05:46:14;;;;;;;;;;;;;;;6.20;54.12;101404.07;117518;1182;23522;-82
2021/11/18 05:48:43;;;;;;;;;;;;;;;6.20;54.21;101403.54;117485;1185;21871;-82
2021/11/18 05:51:11;;;;;;;;;;;;;;;6.20;53.97;101403.55;117486;1179;22270;-82
2021/11/18 05:53:45;;;;;;;;;;;;;;;6.20;54.36;101400.74;117587;1185;23419;-82
2021/11/18 05:56:14;;;;;;;;;;;;;;;6.20;54.39;101405.45;117367;1185;23522;-82
2021/11/18 05:58:42;;;;;;;;;;;;;;;6.17;54.36;101405.59;117496;1186;22914;-82
2021/11/18 06:01:11;;;;;;;;;;;;;;;6.19;54.34;101410.67;117561;1182;23577;-82
2021/11/18 06:03:39;;;;;;;;;;;;;;;6.22;54.06;101414.23;117462;1178;23452;-82
2021/11/18 06:06:07;;;;;;;;;;;;;;;6.26;54.17;101410.13;117473;1183;22886;-82
2021/11/18 06:08:36;;;;;;;;;;;;;;;6.29;54.15;101406.34;117501;1182;23518;-82
2021/11/18 06:11:05;;;;;;;;;;;;;;;6.29;54.09;101402.87;117643;1186;21867;-82
2021/11/18 06:13:35;;;;;;;;;;;;;;;6.28;53.89;101405.46;117596;1183;22944;-82
2021/11/18 06:16:04;;;;;;;;;;;;;;;6.27;54.03;101408.05;117592;1185;21838;-82
2021/11/18 06:18:32;;;;;;;;;;;;;;;6.27;53.97;101405.61;117583;1185;21999;-82
2021/11/18 06:21:00;;;;;;;;;;;;;;;6.27;54.21;101406.84;117640;1182;22822;-82
2021/11/18 06:23:28;;;;;;;;;;;;;;;6.28;54.20;101408.95;117583;1185;21842;-82
2021/11/18 06:25:57;;;;;;;;;;;;;;;6.28;54.11;101420.45;117512;1186;23662;-81
2021/11/18 06:28:25;;;;;;;;;;;;;;;6.29;54.12;101419.61;117466;1185;21851;-81
2021/11/18 06:30:55;;;;;;;;;;;;;;;6.30;53.85;101425.90;117571;1182;24449;-82
2021/11/18 06:33:24;;;;;;;;;;;;;;;6.31;53.87;101424.72;117591;1185;22898;-81
2021/11/18 06:35:52;;;;;;;;;;;;;;;6.33;54.20;101419.00;117583;1182;24210;-81
2021/11/18 06:38:37;;;;;;;;;;;;;;;6.31;54.02;101414.07;117496;1182;22959;-82
2021/11/18 06:41:05;;;;;;;;;;;;;;;6.28;54.21;101415.56;117525;1186;22824;-81
2021/11/18 06:43:33;;;;;;;;;;;;;;;6.27;54.08;101412.93;117410;1188;21851;-81
2021/11/18 06:46:01;;;;;;;;;;;;;;;6.31;54.43;101408.50;117531;1182;22919;-81
2021/11/18 06:48:32;;;;;;;;;;;;;;;6.43;54.34;101403.00;117308;1187;21843;-80
2021/11/18 06:51:12;;;;;;;;;;;;;;;6.53;54.38;101402.00;117423;1187;21870;-82
2021/11/18 06:53:40;;;;;;;;;;;;;;;6.57;54.28;101403.28;118640;1185;21852;-82
2021/11/18 06:56:08;;;;;;;;;;;;;;;6.60;54.21;101406.33;117643;1179;21870;-82
2021/11/18 06:58:36;;;;;;;;;;;;;;;6.63;54.23;101401.66;117532;1186;21851;-81
2021/11/18 07:01:04;;;;;;;;;;;;;;;6.63;54.17;101396.79;117545;1179;23510;-81
2021/11/18 07:03:35;;;;;;;;;;;;;;;6.66;54.35;101397.37;117564;1182;23528;-81
2021/11/18 07:06:03;;;;;;;;;;;;;;;6.66;54.30;101395.27;117400;1186;21852;-81
2021/11/18 07:08:31;;;;;;;;;;;;;;;6.70;54.45;101393.61;117545;1182;23528;-80
2021/11/18 07:10:59;;;;;;;;;;;;;;;6.71;54.18;101392.23;117535;1185;23557;-80
2021/11/18 07:13:28;;;;;;;;;;;;;;;6.72;54.32;101390.69;117504;1185;21852;-80
2021/11/18 07:16:16;;;;;;;;;;;;;;;6.74;54.29;101391.23;117515;1185;21918;-81
2021/11/18 07:18:45;;;;;;;;;;;;;;;6.75;54.10;101387.95;117531;1185;21910;-80
2021/11/18 07:21:13;;;;;;;;;;;;;;;6.75;54.21;101391.10;117440;1179;23162;-81
2021/11/18 07:23:42;;;;;;;;;;;;;;;6.77;54.37;101389.38;117415;1182;21841;-81
2021/11/18 07:26:12;;;;;;;;;;;;;;;6.81;54.56;101391.56;117399;1186;23574;-81
2021/11/18 07:28:41;;;;;;;;;;;;;;;6.86;54.48;101390.95;117487;1182;22282;-81
2021/11/18 07:31:09;;;;;;;;;;;;;;;6.89;54.32;101385.42;117463;1182;23535;-81
2021/11/18 07:33:37;;;;;;;;;;;;;;;6.88;54.30;101382.45;117257;1183;22902;-80
2021/11/18 07:36:06;;;;;;;;;;;;;;;6.87;54.39;101380.85;117404;1179;21851;-81
2021/11/18 07:38:34;;;;;;;;;;;;;;;6.88;54.61;101386.96;117352;1179;21855;-79
2021/11/18 07:41:03;;;;;;;;;;;;;;;6.91;54.64;101391.73;117338;1186;23522;-80
2021/11/18 07:43:33;;;;;;;;;;;;;;;6.92;54.53;101393.34;117432;1182;23248;-80
2021/11/18 07:46:21;;;;;;;;;;;;;;;6.93;54.27;101392.13;117427;1186;21850;-80
2021/11/18 07:48:49;;;;;;;;;;;;;;;6.94;54.30;101392.67;117324;1183;23544;-80
2021/11/18 07:51:19;;;;;;;;;;;;;;;6.99;54.42;101390.50;117413;1182;23544;-80
2021/11/18 07:53:47;;;;;;;;;;;;;;;7.06;54.60;101394.99;117404;1179;23522;-81
2021/11/18 07:56:16;;;;;;;;;;;;;;;7.12;54.76;101399.30;117407;1185;24130;-80
2021/11/18 07:58:44;;;;;;;;;;;;;;;7.17;54.47;101401.30;117502;1182;23642;-80
2021/11/18 08:01:12;;;;;;;;;;;;;;;7.22;54.59;101396.84;117525;1185;21854;-80
2021/11/18 08:03:40;;;;;;;;;;;;;;;7.26;54.62;101397.45;117522;1185;21848;-81
2021/11/18 08:06:09;;;;;;;;;;;;;;;7.31;54.25;101399.43;117428;1182;21845;-79
2021/11/18 08:08:44;;;;;;;;;;;;;;;7.32;54.52;101404.88;117415;1185;22915;-79
2021/11/18 08:11:13;;;;;;;;;;;;;;;7.37;54.42;101406.52;117432;1182;22923;-79
2021/11/18 08:13:41;;;;;;;;;;;;;;;7.42;54.55;101407.69;117396;1186;23516;-80
2021/11/18 08:16:09;;;;;;;;;;;;;;;7.48;54.56;101408.64;117414;1186;21841;-80
2021/11/18 08:18:46;;;;;;;;;;;;;;;7.58;54.56;101408.98;117542;1185;23541;-80
2021/11/18 08:21:15;;;;;;;;;;;;;;;7.70;54.56;101403.23;117551;1185;22983;-79
2021/11/18 08:23:43;;;;;;;;;;;;;;;7.80;54.65;101403.05;117517;1179;22853;-80
2021/11/18 08:26:12;;;;;;;;;;;;;;;7.90;54.52;101401.98;117435;1186;21811;-79
2021/11/18 08:28:42;;;;;;;;;;;;;;;7.95;54.52;101395.06;117397;1186;21880;-80
2021/11/18 08:31:11;;;;;;;;;;;;;;;7.98;54.44;101395.63;117555;1185;21849;-80
2021/11/18 08:33:39;;;;;;;;;;;;;;;8.00;54.49;101392.86;117471;1179;23544;-80
2021/11/18 08:36:07;;;;;;;;;;;;;;;8.01;54.34;101402.30;117512;1179;22034;-79
2021/11/18 13:22:16;;;;;;;50.70;36.50;;;;;;;6.88;59.23;101233.70;115402;1203;555600;-59
2021/11/18 13:24:51;;;;;;;62.50;41.80;;;;;;;7.80;57.61;101230.60;116853;1189;21864;-58
2021/11/18 13:27:37;;;;;;;40.30;27.40;;;;;;;7.98;57.55;101234.13;116780;1186;23443;-58
2021/11/18 13:30:29;;;;;;;53.70;38.80;;;;;;;8.07;57.15;101228.46;116862;1191;23462;-58
2021/11/18 13:33:01;;;;;;;45.90;32.50;;;;;;;8.10;57.13;101231.13;116839;1188;23557;-59
2021/11/18 13:35:36;;;;;;;118.10;87.40;;;;;;;8.13;57.11;101233.95;116783;1189;22948;-59
2021/11/18 13:38:16;;;;;;;48.40;33.60;;;;;;;8.15;56.81;101239.05;116775;1189;21877;-59
2021/11/18 13:41:04;;;;;;;38.00;21.20;;;;;;;8.19;56.99;101244.16;116691;1190;21869;-59
2021/11/18 13:43:54;;;;;;;41.40;22.10;;;;;;;8.21;56.75;101242.44;116820;1188;22871;-59
2021/11/18 13:46:30;;;;;;;28.40;16.70;;;;;;;8.24;56.70;101240.55;116860;1191;21868;-59
2021/11/18 13:49:11;;;;;;;29.00;15.30;;;;;;;8.24;56.64;101237.05;116790;1191;23002;-59
2021/11/18 13:52:07;;;;;;;29.10;13.40;;;;;;;8.23;56.57;101231.63;116867;1191;23465;-59
2021/11/18 13:55:01;;;;;;;20.90;12.90;;;;;;;8.22;56.41;101234.39;117187;1186;23573;-59
2021/11/18 13:57:46;;;;;;;24.20;13.30;;;;;;;8.23;56.50;101233.54;116968;1188;21880;-60
2021/11/18 14:00:27;;;;;;;22.20;13.40;;;;;;;8.20;56.32;101230.01;117251;1188;21861;-59
2021/11/18 14:03:09;;;;;;;28.10;14.00;;;;;;;8.15;56.31;101229.26;117206;1185;23463;-60
2021/11/18 14:05:45;;;;;;;32.80;15.60;;;;;;;8.10;56.38;101233.91;117096;1188;21861;-59
2021/11/18 14:08:17;;;;;;;33.00;15.90;;;;;;;8.13;56.41;101236.93;117224;1187;22915;-59
2021/11/18 14:10:52;;;;;;;39.10;17.20;;;;;;;8.14;56.12;101238.70;117119;1187;22043;-59
2021/11/18 14:13:41;;;;;;;29.00;15.10;;;;;;;8.13;56.09;101232.73;117241;1185;21861;-60
2021/11/18 14:16:31;;;;;;;28.60;14.00;;;;;;;8.10;56.21;101230.27;117134;1186;21859;-59
2021/11/18 14:19:25;;;;;;;22.90;11.60;;;;;;;8.04;56.20;101231.59;117212;1186;21889;-59
2021/11/18 14:21:56;;;;;;;25.60;12.20;;;;;;;8.00;56.13;101234.51;117185;1188;22900;-59
2021/11/18 14:24:45;;;;;;;26.00;12.50;;;;;;;8.03;56.12;101238.55;117127;1188;21875;-59
2021/11/18 14:27:16;;;;;;;23.30;11.90;;;;;;;8.02;56.22;101236.11;116978;1186;23749;-59
2021/11/18 14:30:05;;;;;;;31.00;16.20;;;;;;;8.00;55.95;101236.42;117061;1186;23567;-59
2021/11/18 14:33:03;;;;;;;35.40;19.10;;;;;;;7.99;56.04;101237.11;117061;1185;22335;-59
2021/11/18 14:35:36;;;;;;;58.30;28.90;;;;;;;8.00;56.23;101239.75;117199;1184;21874;-59
2021/11/18 14:38:17;;;;;;;59.30;29.10;;;;;;;8.00;55.96;101239.92;117181;1188;21884;-60
2021/11/18 14:41:08;;;;;;;66.30;35.40;;;;;;;7.97;55.95;101239.01;117238;1187;22667;-60
2021/11/18 14:43:36;;;;;;;45.40;23.80;;;;;;;7.95;55.89;101238.80;117114;1185;24153;-58
2021/11/18 14:46:31;;;;;;;38.00;21.10;;;;;;;7.92;55.84;101243.15;117089;1186;21862;-58
2021/11/18 14:49:29;;;;;;;27.70;16.00;;;;;;;7.87;55.90;101240.82;117082;1186;22958;-58
2021/11/18 14:52:16;;;;;;;28.00;14.90;;;;;;;7.84;55.74;101235.88;116990;1188;21864;-61
2021/11/18 14:54:45;;;;;;;45.40;18.20;;;;;;;7.80;55.77;101234.60;117194;1187;21862;-63
2021/11/18 14:57:31;;;;;;;32.80;15.30;;;;;;;7.78;55.76;101234.40;117105;1184;21893;-60
2021/11/18 14:59:59;;;;;;;25.50;12.10;;;;;;;7.78;55.91;101237.02;117242;1186;21873;-62
2021/11/18 15:02:28;;;;;;;27.40;14.70;;;;;;;7.77;55.88;101235.44;117349;1186;23435;-60
2021/11/18 15:04:56;;;;;;;31.10;16.40;;;;;;;7.77;55.97;101234.40;117488;1183;23439;-59
2021/11/18 15:07:27;;;;;;;35.20;17.20;;;;;;;7.99;56.44;101234.84;117157;1189;22893;-59
2021/11/18 15:09:56;;;;;;;28.40;16.00;;;;;;;8.13;56.39;101235.71;117078;1188;21861;-59
2021/11/18 15:12:31;;;;;;;29.20;16.00;;;;;;;8.18;56.07;101236.11;117141;1188;21858;-61
2021/11/18 15:15:09;;;;;;;29.30;16.10;;;;;;;8.18;56.00;101233.30;117157;1185;21915;-59
2021/11/18 15:17:38;;;;;;;31.70;15.50;;;;;;;8.14;55.83;101232.05;117186;1188;23526;-59
2021/11/18 15:20:07;;;;;;;29.70;14.90;;;;;;;8.06;55.81;101230.55;117113;1188;21870;-59
2021/11/18 15:22:52;;;;;;;29.80;16.70;;;;;;;8.00;55.80;101236.06;117146;1188;23456;-58
2021/11/18 15:25:22;;;;;;;35.50;21.40;;;;;;;7.94;55.80;101235.48;117175;1186;21964;-58
2021/11/18 15:27:50;;;;;;;39.00;22.20;;;;;;;7.89;55.65;101237.34;117103;1185;21931;-60
2021/11/18 15:30:29;;;;;;;42.30;22.00;;;;;;;7.85;55.54;101239.75;117052;1187;21868;-58
2021/11/18 15:32:57;;;;;;;39.50;21.60;;;;;;;7.81;55.66;101246.86;117057;1188;22905;-58
2021/11/18 15:35:28;;;;;;;32.20;20.70;;;;;;;7.79;55.54;101252.06;117119;1185;21862;-59
2021/11/18 15:37:56;;;;;;;33.90;19.50;;;;;;;7.75;55.60;101251.14;117086;1187;22933;-58
2021/11/18 15:40:25;;;;;;;66.60;30.60;;;;;;;7.70;55.72;101248.81;117162;1188;22330;-59
2021/11/18 15:42:53;;;;;;;67.70;34.20;;;;;;;7.68;55.58;101250.19;117057;1184;23458;-59
2021/11/18 15:45:23;;;;;;;37.00;21.60;;;;;;;7.72;55.73;101252.86;117339;1184;23429;-59
2021/11/18 15:47:52;;;;;;;39.20;22.20;;;;;;;7.70;55.57;101255.45;117143;1184;23448;-59
2021/11/18 15:50:24;;;;;;;48.60;26.00;;;;;;;7.65;55.52;101253.29;117383;1184;23295;-59
2021/11/18 15:52:52;;;;;;;42.50;25.00;;;;;;;7.61;55.61;101260.73;117208;1188;21858;-60
2021/11/18 15:55:42;;;;;;;38.00;22.50;;;;;;;7.50;55.47;101258.84;117373;1183;21858;-61
2021/11/18 15:58:10;;;;;;;35.80;22.00;;;;;;;7.39;55.64;101255.88;117273;1186;22929;-58
2021/11/18 16:00:40;;;;;;;39.10;22.00;;;;;;;7.31;55.53;101257.68;117425;1184;23436;-59
2021/11/18 16:03:09;;;;;;;31.30;19.70;;;;;;;7.27;55.70;101257.63;117405;1185;21854;-59
2021/11/18 16:05:38;;;;;;;31.50;18.00;;;;;;;7.23;55.55;101255.30;117420;1185;21865;-58
2021/11/18 16:08:08;;;;;;;35.90;19.10;;;;;;;7.18;55.27;101259.40;117319;1184;23437;-58
2021/11/18 16:10:54;;;;;;;50.10;23.10;;;;;;;7.13;55.69;101258.81;117299;1183;23558;-59
2021/11/18 16:13:31;;;;;;;44.10;22.70;;;;;;;7.14;55.62;101257.08;117260;1181;21865;-59
2021/11/18 16:15:59;;;;;;;35.00;18.90;;;;;;;7.14;55.69;101258.13;117399;1185;22445;-59
2021/11/18 16:18:32;;;;;;;30.30;18.30;;;;;;;7.11;55.54;101259.80;117393;1185;22001;-60
2021/11/18 16:21:04;;;;;;;34.00;18.70;;;;;;;7.09;55.40;101258.72;117050;1187;22626;-60
2021/11/18 16:23:33;;;;;;;30.30;17.10;;;;;;;7.04;55.50;101266.00;117311;1185;22922;-59
2021/11/18 16:26:01;;;;;;;30.50;16.70;;;;;;;6.99;55.28;101267.98;117322;1185;21974;-59
2021/11/18 16:28:29;;;;;;;28.60;15.90;;;;;;;6.93;55.39;101267.55;117409;1185;21843;-58
2021/11/18 16:30:58;;;;;;;23.50;13.90;;;;;;;6.88;55.40;101265.89;117330;1184;23462;-59
2021/11/18 16:33:26;;;;;;;27.40;15.50;;;;;;;6.80;55.35;101265.77;117367;1184;21946;-60
2021/11/18 16:35:55;;;;;;;23.40;14.70;;;;;;;6.70;55.26;101258.95;117311;1185;21862;-59
2021/11/18 16:38:28;;;;;;;24.20;14.80;;;;;;;6.61;55.20;101259.50;117267;1186;21851;-59
2021/11/18 16:40:57;;;;;;;27.50;15.00;;;;;;;6.50;55.09;101257.21;117336;1184;24597;-59
2021/11/18 16:43:26;;;;;;;36.40;20.40;;;;;;;6.39;54.87;101261.71;117342;1185;21867;-59
2021/11/18 16:45:55;;;;;;;32.50;18.50;;;;;;;6.26;55.33;101261.27;117140;1183;21851;-59
2021/11/18 16:48:24;;;;;;;28.50;16.80;;;;;;;6.14;55.12;101261.56;117122;1186;24187;-60
2021/11/18 16:50:58;;;;;;;37.80;17.90;;;;;;;6.00;54.96;101257.09;117326;1185;23442;-59
2021/11/18 16:53:27;;;;;;;26.80;15.60;;;;;;;5.89;54.99;101254.41;117134;1186;21852;-59
2021/11/18 16:55:56;;;;;;;24.10;13.90;;;;;;;5.78;54.82;101258.34;117112;1186;21853;-59
2021/11/18 16:58:25;;;;;;;23.20;13.30;;;;;;;5.63;54.54;101257.17;117433;1184;21880;-61
2021/11/18 17:00:57;;;;;;;24.70;12.60;;;;;;;5.49;54.68;101258.42;117354;1184;21868;-60
2021/11/18 17:03:26;;;;;;;22.90;12.90;;;;;;;5.31;54.57;101262.73;117326;1185;23507;-59
2021/11/18 17:05:59;;;;;;;22.30;12.20;;;;;;;5.16;54.82;101266.52;117320;1182;23686;-60
2021/11/18 17:08:28;;;;;;;40.90;18.30;;;;;;;5.00;54.74;101267.55;117314;1183;23689;-60
2021/11/18 17:10:59;;;;;;;39.90;18.00;;;;;;;4.88;54.65;101270.38;117352;1183;22631;-59